createdAt,value
2023-01-02T00:01:32.753Z,101101.34
2023-01-02T00:04:00.855Z,101101.91
2023-01-02T00:06:28.861Z,101089.44
2023-01-02T00:08:56.771Z,101080.66
2023-01-02T00:11:26.029Z,101085.09
2023-01-02T00:13:53.979Z,101069.66
2023-01-02T00:16:22.047Z,101072.97
2023-01-02T00:18:50.311Z,101056.81
2023-01-02T00:21:18.802Z,101056.41
2023-01-02T00:23:46.795Z,101051.16
2023-01-02T00:26:14.731Z,101047.22
2023-01-02T00:28:44.106Z,101045.31
2023-01-02T00:31:15.096Z,101038.34
2023-01-02T00:34:01.753Z,101041.69
2023-01-02T00:36:29.706Z,101046.84
2023-01-02T00:38:57.767Z,101050.00
2023-01-02T00:41:25.988Z,101047.13
2023-01-02T00:43:55.242Z,101051.31
2023-01-02T00:46:23.264Z,101042.44
2023-01-02T00:48:51.272Z,101048.09
2023-01-02T00:51:19.501Z,101032.00
2023-01-02T00:53:47.395Z,101033.91
2023-01-02T00:56:15.277Z,101024.78
2023-01-02T00:58:43.255Z,101031.97
2023-01-02T01:01:12.636Z,101037.75
2023-01-02T01:03:43.313Z,101036.19
2023-01-02T01:06:12.387Z,101039.00
2023-01-02T01:08:40.399Z,101032.06
2023-01-02T01:11:09.345Z,101036.78
2023-01-02T01:13:37.359Z,101024.94
2023-01-02T01:16:06.631Z,101031.97
2023-01-02T01:18:36.447Z,101029.00
2023-01-02T01:21:07.918Z,101030.91
2023-01-02T01:23:35.995Z,101026.59
2023-01-02T01:26:06.134Z,101017.31
2023-01-02T01:28:34.344Z,101010.00
2023-01-02T01:31:04.221Z,101012.22
2023-01-02T01:33:32.836Z,101005.72
2023-01-02T01:36:07.914Z,100990.97
2023-01-02T01:38:36.270Z,100991.34
2023-01-02T01:41:06.551Z,100994.34
2023-01-02T01:43:39.265Z,101000.56
2023-01-02T01:46:11.054Z,100984.16
2023-01-02T01:48:39.571Z,100993.00
2023-01-02T01:51:09.467Z,101001.88
2023-01-02T01:53:39.462Z,100988.41
2023-01-02T01:56:09.506Z,100979.94
2023-01-02T01:58:43.012Z,100967.00
2023-01-02T02:01:13.242Z,100970.31
2023-01-02T02:03:44.021Z,100960.03
2023-01-02T02:06:14.257Z,100962.25
2023-01-02T02:08:48.797Z,100962.56
2023-01-02T02:11:18.366Z,100953.81
2023-01-02T02:13:46.780Z,100951.03
2023-01-02T02:16:25.016Z,100945.28
2023-01-02T02:19:08.243Z,100942.06
2023-01-02T02:21:58.380Z,100938.56
2023-01-02T02:24:59.705Z,100931.63
2023-01-02T02:27:47.601Z,100921.44
2023-01-02T02:30:18.412Z,100915.44
2023-01-02T02:33:14.309Z,100907.53
2023-01-02T02:35:54.604Z,100893.03
2023-01-02T02:38:37.689Z,100895.91
2023-01-02T02:41:17.150Z,100886.53
2023-01-02T02:43:53.572Z,100886.25
2023-01-02T02:46:32.666Z,100884.72
2023-01-02T02:49:07.213Z,100899.31
2023-01-02T02:51:42.366Z,100889.47
2023-01-02T02:54:14.525Z,100892.09
2023-01-02T02:56:44.479Z,100897.31
2023-01-02T02:59:13.282Z,100892.22
2023-01-02T03:01:42.773Z,100886.69
2023-01-02T03:04:18.302Z,100888.47
2023-01-02T03:06:55.615Z,100882.34
2023-01-02T03:09:34.316Z,100879.38
2023-01-02T03:12:14.457Z,100871.53
2023-01-02T03:14:49.959Z,100864.00
2023-01-02T03:17:26.259Z,100865.63
2023-01-02T03:20:01.625Z,100847.44
2023-01-02T03:22:34.589Z,100856.56
2023-01-02T03:25:05.262Z,100860.75
2023-01-02T03:27:38.897Z,100855.69
2023-01-02T03:30:09.864Z,100865.69
2023-01-02T03:32:43.931Z,100864.97
2023-01-02T03:35:15.472Z,100866.63
2023-01-02T03:37:49.878Z,100864.56
2023-01-02T03:40:19.780Z,100860.66
2023-01-02T03:42:54.412Z,100851.88
2023-01-02T03:45:25.439Z,100848.41
2023-01-02T03:48:01.287Z,100842.81
2023-01-02T03:50:34.617Z,100845.97
2023-01-02T03:53:02.806Z,100850.03
2023-01-02T03:55:35.538Z,100849.09
2023-01-02T03:58:13.527Z,100843.72
2023-01-02T04:00:48.926Z,100841.28
2023-01-02T04:03:22.571Z,100842.63
2023-01-02T04:05:55.572Z,100838.16
2023-01-02T04:08:29.105Z,100846.59
2023-01-02T04:11:00.837Z,100836.09
2023-01-02T04:13:34.837Z,100837.72
2023-01-02T04:16:05.141Z,100825.81
2023-01-02T04:18:44.621Z,100825.94
2023-01-02T04:21:19.297Z,100824.56
2023-01-02T04:23:51.630Z,100837.88
2023-01-02T04:26:25.038Z,100833.97
2023-01-02T04:28:53.994Z,100831.28
2023-01-02T04:31:27.400Z,100837.53
2023-01-02T04:34:00.139Z,100846.59
2023-01-02T04:36:28.689Z,100840.63
2023-01-02T04:38:56.672Z,100831.16
2023-01-02T04:41:27.807Z,100827.56
2023-01-02T04:43:56.045Z,100832.13
2023-01-02T04:46:24.738Z,100833.97
2023-01-02T04:48:54.073Z,100820.84
2023-01-02T04:51:24.126Z,100826.28
2023-01-02T04:53:53.670Z,100820.47
2023-01-02T04:56:21.768Z,100822.09
2023-01-02T04:58:50.910Z,100822.34
2023-01-02T05:01:21.278Z,100824.53
2023-01-02T05:03:52.511Z,100829.69
2023-01-02T05:06:20.504Z,100824.34
2023-01-02T05:08:49.757Z,100822.19
2023-01-02T05:11:20.028Z,100815.84
2023-01-02T05:13:47.945Z,100821.97
2023-01-02T05:16:16.000Z,100832.31
2023-01-02T05:18:43.945Z,100829.34
2023-01-02T05:21:27.694Z,100822.06
2023-01-02T05:23:58.013Z,100833.47
2023-01-02T05:26:25.909Z,100823.44
2023-01-02T05:28:54.352Z,100829.53
2023-01-02T05:31:22.540Z,100818.25
2023-01-02T05:33:53.770Z,100817.03
2023-01-02T05:36:22.386Z,100824.81
2023-01-02T05:38:50.734Z,100818.34
2023-01-02T05:41:21.593Z,100811.75
2023-01-02T05:43:49.667Z,100817.19
2023-01-02T05:46:19.785Z,100807.19
2023-01-02T05:48:48.121Z,100804.75
2023-01-02T05:51:17.527Z,100809.19
2023-01-02T05:53:46.158Z,100801.03
2023-01-02T05:56:15.925Z,100806.72
2023-01-02T05:58:46.676Z,100806.03
2023-01-02T06:01:16.794Z,100806.31
2023-01-02T06:03:46.517Z,100799.75
2023-01-02T06:06:15.477Z,100801.53
2023-01-02T06:08:43.676Z,100812.22
2023-01-02T06:11:11.859Z,100802.34
2023-01-02T06:13:39.949Z,100796.34
2023-01-02T06:16:11.579Z,100804.94
2023-01-02T06:18:40.901Z,100812.69
2023-01-02T06:21:11.042Z,100811.81
2023-01-02T06:23:39.840Z,100803.50
2023-01-02T06:26:10.053Z,100812.47
2023-01-02T06:28:38.799Z,100812.88
2023-01-02T06:31:09.990Z,100804.09
2023-01-02T06:33:38.544Z,100804.41
2023-01-02T06:36:09.136Z,100808.31
2023-01-02T06:38:38.060Z,100804.38
2023-01-02T06:41:07.920Z,100805.34
2023-01-02T06:43:36.916Z,100818.19
2023-01-02T06:46:06.388Z,100817.63
2023-01-02T06:48:36.165Z,100814.75
2023-01-02T06:51:06.012Z,100812.25
2023-01-02T06:53:34.704Z,100806.81
2023-01-02T06:56:02.730Z,100810.41
2023-01-02T06:58:32.934Z,100813.47
2023-01-02T07:01:04.175Z,100815.88
2023-01-02T07:03:32.658Z,100817.56
2023-01-02T07:06:03.786Z,100821.03
2023-01-02T07:08:32.004Z,100817.56
2023-01-02T07:11:11.297Z,100820.38
2023-01-02T07:13:39.533Z,100811.16
2023-01-02T07:16:09.497Z,100827.34
2023-01-02T07:18:38.087Z,100832.88
2023-01-02T07:21:08.595Z,100834.81
2023-01-02T07:23:36.660Z,100841.94
2023-01-02T07:26:06.525Z,100841.63
2023-01-02T07:28:35.743Z,100843.19
2023-01-02T07:31:05.303Z,100846.69
2023-01-02T07:33:33.990Z,100831.22
2023-01-02T07:36:03.160Z,100829.53
2023-01-02T07:38:32.955Z,100838.16
2023-01-02T07:41:01.089Z,100835.78
2023-01-02T07:43:29.191Z,100844.03
2023-01-02T07:46:03.333Z,100848.66
2023-01-02T07:48:31.288Z,100853.81
2023-01-02T07:51:01.572Z,100848.22
2023-01-02T07:53:29.825Z,100856.00
2023-01-02T07:56:00.177Z,100865.75
2023-01-02T07:58:28.795Z,100856.31
2023-01-02T08:01:03.211Z,100859.66
2023-01-02T08:03:33.710Z,100864.25
2023-01-02T08:06:06.416Z,100863.88
2023-01-02T08:08:35.596Z,100864.16
2023-01-02T08:11:10.058Z,100856.38
2023-01-02T08:13:38.424Z,100862.34
2023-01-02T08:16:09.458Z,100865.53
2023-01-02T08:18:40.181Z,100867.66
2023-01-02T08:21:08.684Z,100870.03
2023-01-02T08:23:37.491Z,100860.56
2023-01-02T08:26:09.147Z,100860.56
2023-01-02T08:28:38.282Z,100868.34
2023-01-02T08:31:11.089Z,100858.78
2023-01-02T08:33:39.652Z,100864.50
2023-01-02T08:36:08.576Z,100865.47
2023-01-02T08:38:36.644Z,100864.50
2023-01-02T08:41:09.198Z,100868.53
2023-01-02T08:43:38.037Z,100866.31
2023-01-02T08:46:07.460Z,100862.25
2023-01-02T08:48:35.740Z,100863.53
2023-01-02T08:51:06.996Z,100863.66
2023-01-02T08:53:35.017Z,100863.94
2023-01-02T08:56:25.608Z,100866.16
2023-01-02T08:58:55.405Z,100870.09
2023-01-02T09:01:24.449Z,100871.22
2023-01-02T09:03:53.234Z,100870.81
2023-01-02T09:06:22.581Z,100871.78
2023-01-02T09:08:52.160Z,100867.59
2023-01-02T09:11:24.319Z,100874.03
2023-01-02T09:13:52.581Z,100886.88
2023-01-02T09:16:22.152Z,100892.31
2023-01-02T09:18:50.294Z,100885.44
2023-01-02T09:21:19.455Z,100889.22
2023-01-02T09:23:47.402Z,100892.56
2023-01-02T09:26:15.950Z,100885.31
2023-01-02T09:28:45.531Z,100881.97
2023-01-02T09:31:15.183Z,100883.50
2023-01-02T09:33:44.903Z,100890.47
2023-01-02T09:36:16.148Z,100899.28
2023-01-02T09:38:44.444Z,100898.56
2023-01-02T09:41:28.571Z,100893.41
2023-01-02T09:44:00.931Z,100880.72
2023-01-02T09:46:34.444Z,100878.06
2023-01-02T09:49:03.813Z,100877.09
2023-01-02T09:51:32.882Z,100873.47
2023-01-02T09:54:01.611Z,100870.81
2023-01-02T09:56:34.863Z,100864.81
2023-01-02T09:59:14.855Z,100855.19
2023-01-02T10:01:55.998Z,100846.25
2023-01-02T10:04:37.098Z,100849.88
2023-01-02T10:07:11.084Z,100844.59
2023-01-02T10:09:50.348Z,100851.38
2023-01-02T10:12:25.361Z,100851.38
2023-01-02T10:14:59.404Z,100838.97
2023-01-02T10:17:31.324Z,100839.50
2023-01-02T10:20:03.547Z,100837.16
2023-01-02T10:22:39.732Z,100833.81
2023-01-02T10:25:13.894Z,100832.25
2023-01-02T10:27:44.467Z,100825.25
2023-01-02T10:30:21.011Z,100806.69
2023-01-02T10:32:56.877Z,100820.78
2023-01-02T10:35:36.139Z,100827.59
2023-01-02T10:38:04.854Z,100816.28
2023-01-02T10:40:34.053Z,100812.25
2023-01-02T10:43:02.563Z,100811.69
2023-01-02T10:45:34.495Z,100813.78
2023-01-02T10:48:02.526Z,100799.41
2023-01-02T10:50:37.517Z,100822.03
2023-01-02T10:53:08.445Z,100822.31
2023-01-02T10:55:39.775Z,100819.91
2023-01-02T10:58:14.378Z,100824.53
2023-01-02T11:00:44.058Z,100819.22
2023-01-02T11:03:16.974Z,100809.75
2023-01-02T11:05:48.263Z,100804.38
2023-01-02T11:08:18.359Z,100818.34
2023-01-02T11:10:47.243Z,100819.91
2023-01-02T11:13:17.095Z,100813.91
2023-01-02T11:15:51.718Z,100816.69
2023-01-02T11:18:23.705Z,100816.78
2023-01-02T11:20:54.507Z,100810.66
2023-01-02T11:23:26.167Z,100813.91
2023-01-02T11:25:55.338Z,100810.88
2023-01-02T11:28:26.626Z,100807.28
2023-01-02T11:31:03.342Z,100796.09
2023-01-02T11:33:34.251Z,100808.69
2023-01-02T11:36:15.365Z,100797.44
2023-01-02T11:38:45.776Z,100799.09
2023-01-02T11:41:49.170Z,100803.31
2023-01-02T11:44:22.876Z,100809.03
2023-01-02T11:46:53.678Z,100818.63
2023-01-02T11:49:25.958Z,100813.06
2023-01-02T11:51:57.511Z,100811.69
2023-01-02T11:54:36.118Z,100808.91
2023-01-02T11:57:18.442Z,100811.81
2023-01-02T11:59:49.887Z,100808.59
2023-01-02T12:02:28.116Z,100818.66
2023-01-02T12:04:57.069Z,100823.56
2023-01-02T12:07:42.260Z,100820.63
2023-01-02T12:10:21.530Z,100813.19
2023-01-02T12:13:00.598Z,100808.34
2023-01-02T12:15:46.281Z,100808.19
2023-01-02T12:18:28.553Z,100808.72
2023-01-02T12:21:06.866Z,100809.59
2023-01-02T12:23:58.308Z,100820.03
2023-01-02T12:26:33.585Z,100811.97
2023-01-02T12:29:46.130Z,100815.03
2023-01-02T12:32:42.294Z,100821.59
2023-01-02T12:35:29.491Z,100822.16
2023-01-02T12:37:59.465Z,100820.72
2023-01-02T12:40:44.522Z,100823.41
2023-01-02T12:43:33.329Z,100830.25
2023-01-02T12:46:23.205Z,100821.19
2023-01-02T12:49:09.369Z,100821.59
2023-01-02T12:51:47.883Z,100829.44
2023-01-02T12:54:33.149Z,100828.56
2023-01-02T12:57:08.169Z,100841.53
2023-01-02T12:59:58.058Z,100834.41
2023-01-02T13:02:42.887Z,100838.56
2023-01-02T13:05:15.539Z,100841.38
2023-01-02T13:07:50.022Z,100832.47
2023-01-02T13:10:19.783Z,100838.88
2023-01-02T13:12:49.057Z,100836.91
2023-01-02T13:15:22.046Z,100815.59
2023-01-02T13:18:04.094Z,100827.47
2023-01-02T13:20:44.913Z,100832.75
2023-01-02T13:23:31.515Z,100827.75
2023-01-02T13:26:02.348Z,100846.28
2023-01-02T13:28:30.973Z,100829.69
2023-01-02T13:31:27.082Z,100832.91
2023-01-02T13:33:53.874Z,100831.63
2023-01-02T13:36:27.044Z,100838.06
2023-01-02T13:39:00.001Z,100835.97
2023-01-02T13:41:30.941Z,100848.66
2023-01-02T13:44:02.333Z,100859.41
2023-01-02T13:47:02.581Z,100855.47
2023-01-02T13:49:29.420Z,100855.75
2023-01-02T13:52:01.210Z,100855.63
2023-01-02T13:54:39.593Z,100864.13
2023-01-02T13:57:31.565Z,100857.31
2023-01-02T14:00:00.982Z,100853.81
2023-01-02T14:02:29.869Z,100860.66
2023-01-02T14:04:58.463Z,100855.03
2023-01-02T14:07:50.285Z,100857.69
2023-01-02T14:10:41.687Z,100864.53
2023-01-02T14:13:25.861Z,100851.44
2023-01-02T14:16:20.389Z,100863.41
2023-01-02T14:19:05.045Z,100862.59
2023-01-02T14:21:34.535Z,100858.97
2023-01-02T14:24:17.277Z,100866.94
2023-01-02T14:26:54.063Z,100865.94
2023-01-02T14:29:23.932Z,100880.03
2023-01-02T14:32:02.348Z,100879.75
2023-01-02T14:34:35.743Z,100883.53
2023-01-02T14:37:13.660Z,100888.38
2023-01-02T14:39:46.050Z,100894.94
2023-01-02T14:42:52.009Z,100901.38
2023-01-02T14:45:24.019Z,100896.47
2023-01-02T14:47:55.914Z,100908.34
2023-01-02T14:50:27.329Z,100901.38
2023-01-02T14:53:05.427Z,100896.22
2023-01-02T14:55:42.310Z,100895.34
2023-01-02T14:58:21.449Z,100897.03
2023-01-02T15:00:59.101Z,100883.63
2023-01-02T15:03:39.617Z,100889.09
2023-01-02T15:06:13.813Z,100891.03
2023-01-02T15:08:49.273Z,100906.53
2023-01-02T15:11:37.989Z,100903.03
2023-01-02T15:14:10.902Z,100908.19
2023-01-02T15:16:46.496Z,100907.75
2023-01-02T15:19:23.163Z,100914.19
2023-01-02T15:21:52.591Z,100921.00
2023-01-02T15:24:24.120Z,100926.44
2023-01-02T15:26:53.141Z,100945.56
2023-01-02T15:29:26.361Z,100954.06
2023-01-02T15:31:57.213Z,100955.19
2023-01-02T15:34:27.910Z,100964.53
2023-01-02T15:36:58.829Z,100981.81
2023-01-02T15:39:34.238Z,100982.78
2023-01-02T15:42:11.816Z,100986.16
2023-01-02T15:44:59.250Z,101000.22
2023-01-02T15:47:28.933Z,101003.13
2023-01-02T15:49:58.908Z,100992.41
2023-01-02T15:52:31.437Z,101016.63
2023-01-02T15:55:00.677Z,101018.63
2023-01-02T15:57:32.021Z,101023.41
2023-01-02T16:00:02.367Z,101032.56
2023-01-02T16:02:43.470Z,101028.63
2023-01-02T16:05:15.618Z,101044.59
2023-01-02T16:08:05.922Z,101034.00
2023-01-02T16:10:34.370Z,101034.81
2023-01-02T16:13:26.578Z,101037.00
2023-01-02T16:16:16.758Z,101045.31
2023-01-02T16:18:49.619Z,101046.38
2023-01-02T16:21:19.040Z,101045.41
2023-01-02T16:23:53.095Z,101056.25
2023-01-02T16:26:25.655Z,101068.34
2023-01-02T16:28:55.361Z,101064.66
2023-01-02T16:31:26.757Z,101050.94
2023-01-02T16:34:13.927Z,101068.28
2023-01-02T16:36:42.787Z,101073.00
2023-01-02T16:39:41.310Z,101076.16
2023-01-02T16:42:27.174Z,101078.22
2023-01-02T16:44:56.591Z,101084.31
2023-01-02T16:47:35.681Z,101086.66
2023-01-02T16:50:06.421Z,101090.25
2023-01-02T16:52:36.803Z,101100.69
2023-01-02T16:55:06.460Z,101109.13
2023-01-02T16:57:34.694Z,101104.19
2023-01-02T17:00:03.323Z,101109.69
2023-01-02T17:02:32.966Z,101113.09
2023-01-02T17:05:01.180Z,101133.03
2023-01-02T17:07:30.472Z,101124.19
2023-01-02T17:09:58.548Z,101125.13
2023-01-02T17:12:26.743Z,101134.28
2023-01-02T17:14:54.786Z,101124.31
2023-01-02T17:17:22.861Z,101133.69
2023-01-02T17:19:52.214Z,101143.16
2023-01-02T17:22:20.832Z,101151.69
2023-01-02T17:24:48.991Z,101143.00
2023-01-02T17:27:17.598Z,101136.75
2023-01-02T17:29:45.690Z,101139.75
2023-01-02T17:32:13.722Z,101137.06
2023-01-02T17:34:41.726Z,101151.22
2023-01-02T17:37:10.999Z,101147.75
2023-01-02T17:39:38.991Z,101145.47
2023-01-02T17:42:10.324Z,101148.94
2023-01-02T17:44:41.952Z,101158.53
2023-01-02T17:47:47.942Z,101157.25
2023-01-02T17:49:58.276Z,101155.34
2023-01-02T17:52:27.928Z,101166.09
2023-01-02T17:54:56.938Z,101171.38
2023-01-02T17:57:28.464Z,101162.84
2023-01-02T17:59:58.802Z,101168.34
2023-01-02T18:02:30.354Z,101186.25
2023-01-02T18:04:59.372Z,101180.59
2023-01-02T18:08:06.456Z,101193.19
2023-01-02T18:10:36.360Z,101190.88
2023-01-02T18:13:05.258Z,101206.03
2023-01-02T18:15:33.407Z,101204.31
2023-01-02T18:18:09.566Z,101212.50
2023-01-02T18:20:40.905Z,101200.47
2023-01-02T18:23:14.722Z,101205.53
2023-01-02T18:25:43.302Z,101199.09
2023-01-02T18:28:21.982Z,101204.88
2023-01-02T18:30:56.714Z,101207.63
2023-01-02T18:33:26.300Z,101198.97
2023-01-02T18:36:02.626Z,101201.00
2023-01-02T18:38:36.871Z,101203.44
2023-01-02T18:41:12.555Z,101214.13
2023-01-02T18:43:43.567Z,101226.91
2023-01-02T18:46:14.843Z,101228.47
2023-01-02T18:48:43.125Z,101235.31
2023-01-02T18:51:17.330Z,101232.50
2023-01-02T18:53:49.482Z,101237.84
2023-01-02T18:56:19.853Z,101240.69
2023-01-02T18:58:55.747Z,101253.47
2023-01-02T19:01:28.042Z,101249.75
2023-01-02T19:04:10.468Z,101244.94
2023-01-02T19:06:48.278Z,101249.06
2023-01-02T19:09:20.573Z,101250.84
2023-01-02T19:12:12.391Z,101257.38
2023-01-02T19:14:42.386Z,101260.91
2023-01-02T19:17:19.751Z,101271.88
2023-01-02T19:19:48.256Z,101266.34
2023-01-02T19:22:19.783Z,101277.97
2023-01-02T19:24:49.549Z,101278.84
2023-01-02T19:27:24.389Z,101280.94
2023-01-02T19:29:53.227Z,101282.94
2023-01-02T19:32:27.456Z,101287.78
2023-01-02T19:34:56.787Z,101277.25
2023-01-02T19:37:35.690Z,101286.44
2023-01-02T19:40:14.600Z,101313.63
2023-01-02T19:42:46.607Z,101305.94
2023-01-02T19:45:16.824Z,101306.91
2023-01-02T19:47:47.665Z,101311.75
2023-01-02T19:50:19.846Z,101301.94
2023-01-02T19:52:48.255Z,101309.00
2023-01-02T19:55:18.815Z,101334.63
2023-01-02T19:57:47.652Z,101317.66
2023-01-02T20:00:19.165Z,101323.66
2023-01-02T20:02:49.065Z,101324.91
2023-01-02T20:05:21.484Z,101329.56
2023-01-02T20:07:51.351Z,101335.75
2023-01-02T20:10:21.175Z,101332.91
2023-01-02T20:12:49.270Z,101332.16
2023-01-02T20:15:19.587Z,101330.28
2023-01-02T20:17:48.276Z,101329.84
2023-01-02T20:20:18.764Z,101344.91
2023-01-02T20:22:47.202Z,101325.31
2023-01-02T20:25:17.357Z,101321.31
2023-01-02T20:27:46.797Z,101323.75
2023-01-02T20:30:20.225Z,101321.41
2023-01-02T20:32:51.860Z,101323.72
2023-01-02T20:35:19.977Z,101327.19
2023-01-02T20:37:48.669Z,101337.41
2023-01-02T20:40:17.453Z,101332.88
2023-01-02T20:42:47.244Z,101350.66
2023-01-02T20:45:15.274Z,101347.16
2023-01-02T20:47:43.256Z,101365.31
2023-01-02T20:50:11.352Z,101369.69
2023-01-02T20:52:39.809Z,101376.19
2023-01-02T20:55:08.945Z,101390.97
2023-01-02T20:57:37.007Z,101390.19
2023-01-02T21:00:10.247Z,101403.75
2023-01-02T21:02:38.755Z,101401.22
2023-01-02T21:05:07.175Z,101402.38
2023-01-02T21:07:35.694Z,101408.81
2023-01-02T21:10:08.488Z,101419.09
2023-01-02T21:13:01.656Z,101431.84
2023-01-02T21:15:45.284Z,101445.78
2023-01-02T21:18:16.630Z,101436.41
2023-01-02T21:20:46.726Z,101440.31
2023-01-02T21:23:15.399Z,101451.91
2023-01-02T21:25:44.436Z,101444.84
2023-01-02T21:28:13.938Z,101444.84
2023-01-02T21:30:44.874Z,101445.97
2023-01-02T21:33:15.785Z,101444.75
2023-01-02T21:35:46.049Z,101457.03
2023-01-02T21:38:15.578Z,101466.28
2023-01-02T21:40:45.120Z,101480.06
2023-01-02T21:43:14.285Z,101476.31
2023-01-02T21:45:43.845Z,101477.66
2023-01-02T21:48:12.393Z,101488.44
2023-01-02T21:50:40.462Z,101483.38
2023-01-02T21:53:08.634Z,101478.88
2023-01-02T21:55:36.791Z,101479.03
2023-01-02T21:58:13.787Z,101490.13
2023-01-02T22:00:44.413Z,101505.50
2023-01-02T22:03:15.261Z,101501.88
2023-01-02T22:05:43.546Z,101496.63
2023-01-02T22:08:14.365Z,101518.50
2023-01-02T22:10:42.518Z,101511.34
2023-01-02T22:13:10.439Z,101515.34
2023-01-02T22:15:38.677Z,101517.03
2023-01-02T22:18:08.101Z,101517.34
2023-01-02T22:20:36.122Z,101510.31
2023-01-02T22:23:04.106Z,101525.06
2023-01-02T22:25:32.386Z,101532.66
2023-01-02T22:28:02.120Z,101523.75
2023-01-02T22:30:34.866Z,101531.03
2023-01-02T22:33:03.845Z,101540.13
2023-01-02T22:35:33.814Z,101534.41
2023-01-02T22:38:03.082Z,101538.16
2023-01-02T22:40:31.118Z,101535.53
2023-01-02T22:43:02.904Z,101533.97
2023-01-02T22:45:36.587Z,101547.34
2023-01-02T22:48:08.215Z,101548.66
2023-01-02T22:50:43.756Z,101545.94
2023-01-02T22:53:20.202Z,101554.84
2023-01-02T22:55:48.617Z,101555.00
2023-01-02T22:58:16.845Z,101565.16
2023-01-02T23:00:47.512Z,101559.22
2023-01-02T23:03:16.964Z,101562.06
2023-01-02T23:05:46.221Z,101559.84
2023-01-02T23:08:14.393Z,101568.59
2023-01-02T23:10:42.336Z,101569.34
2023-01-02T23:13:10.216Z,101557.94
2023-01-02T23:15:59.712Z,101574.19
2023-01-02T23:18:45.064Z,101583.66
2023-01-02T23:21:17.132Z,101580.09
2023-01-02T23:23:45.011Z,101574.13
2023-01-02T23:26:16.716Z,101573.09
2023-01-02T23:31:32.612Z,101585.31
2023-01-02T23:34:01.504Z,101587.16
2023-01-02T23:36:31.194Z,101589.69
2023-01-02T23:38:59.110Z,101589.16
2023-01-02T23:41:27.301Z,101591.69
2023-01-02T23:43:55.162Z,101594.06
2023-01-02T23:46:23.141Z,101598.66
2023-01-02T23:48:51.112Z,101600.19
2023-01-02T23:51:19.292Z,101603.44
2023-01-02T23:53:48.841Z,101606.75
2023-01-02T23:56:19.589Z,101611.06
2023-01-02T23:58:47.641Z,101599.94
